Time;durP1;ratioP1;P1;durP2;ratioP2;P2;SDS_P1;SDS_P2;PMS_P1;PMS_P2;Temp;Humidity;BMP_temperature;BMP_pressure;BME280_temperature;BME280_humidity;BME280_pressure;Samples;Min_cycle;Max_cycle;Signal;HPM_P1;HPM_P2
2022/01/28 00:01:03;;;;;;;0.97;0.77;;;3.30;99.90;2.30;98337;;;;543916;261;24240;-81
2022/01/28 00:03:27;;;;;;;2.10;0.90;;;3.20;99.90;2.30;98343;;;;545660;260;24145;-81
2022/01/28 00:05:56;;;;;;;1.20;0.50;;;3.20;99.90;2.30;98345;;;;540470;262;24207;-81
2022/01/28 00:08:24;;;;;;;2.77;0.60;;;3.20;99.90;2.30;98347;;;;536194;259;24183;-81
2022/01/28 00:10:53;;;;;;;2.33;0.67;;;3.20;99.90;2.30;98343;;;;543858;263;24241;-81
2022/01/28 00:13:23;;;;;;;0.80;0.40;;;3.20;99.90;2.30;98347;;;;545671;260;24167;-80
2022/01/28 00:16:11;;;;;;;0.83;0.30;;;3.20;99.90;2.20;98342;;;;538974;262;24206;-81
2022/01/28 00:36:29;;;;;;;1.10;0.73;;;3.20;99.90;2.20;98351;;;;533555;264;24206;-80
2022/01/28 00:36:32;;;;;;;1.80;0.40;;;3.20;99.90;2.20;98337;;;;544070;264;24188;-80
2022/01/28 00:39:42;;;;;;;0.87;0.50;;;3.00;99.90;2.00;98351;;;;548604;260;25192;-81
2022/01/28 00:42:14;;;;;;;1.20;0.50;;;2.90;99.90;2.00;98351;;;;548653;258;35425;-80
2022/01/28 00:44:41;;;;;;;1.50;0.60;;;3.00;99.90;2.00;98345;;;;543514;260;24302;-79
2022/01/28 00:47:06;;;;;;;0.27;0.27;;;3.00;99.90;2.00;98350;;;;553529;259;24159;-81
2022/01/28 00:49:35;;;;;;;0.87;0.43;;;2.90;99.90;1.90;98353;;;;553511;257;24187;-79
2022/01/28 00:52:06;;;;;;;0.47;0.43;;;2.90;99.90;1.90;98364;;;;537633;261;24164;-80
2022/01/28 00:54:31;;;;;;;0.10;0.10;;;2.80;99.90;1.90;98358;;;;542951;259;24176;-80
2022/01/28 00:56:59;;;;;;;0.13;0.13;;;2.80;99.90;1.90;98360;;;;547190;259;24334;-81
2022/01/28 00:59:27;;;;;;;1.67;0.63;;;2.80;99.90;1.90;98364;;;;554934;256;24164;-82
2022/01/28 01:01:55;;;;;;;0.20;0.20;;;2.80;99.90;1.80;98351;;;;546403;259;24190;-81
2022/01/28 01:04:24;;;;;;;0.40;0.40;;;2.80;99.90;1.80;98364;;;;554194;257;24185;-79
2022/01/28 01:06:52;;;;;;;0.67;0.67;;;2.80;99.90;1.80;98358;;;;545967;259;24209;-80
2022/01/28 01:09:20;;;;;;;0.77;0.70;;;2.80;99.90;1.80;98356;;;;554047;258;24203;-80
2022/01/28 01:11:48;;;;;;;0.23;0.23;;;2.80;99.90;1.80;98363;;;;545786;260;24231;-80
2022/01/28 01:14:16;;;;;;;0.50;0.50;;;2.70;99.90;1.80;98360;;;;553857;257;24159;-79
2022/01/28 01:17:32;;;;;;;1.60;0.60;;;2.80;99.90;1.80;98371;;;;545780;260;24151;-80
2022/01/28 01:19:21;;;;;;;4.37;0.40;;;2.80;99.90;1.80;98372;;;;541155;262;24179;-80
2022/01/28 01:21:44;;;;;;;1.30;0.60;;;2.80;99.90;1.80;98376;;;;543978;261;24279;-81
2022/01/28 01:24:20;;;;;;;1.17;0.40;;;2.80;99.90;1.90;98380;;;;546217;260;24153;-80
2022/01/28 01:26:41;;;;;;;0.50;0.50;;;2.80;99.90;1.90;98389;;;;535315;264;24174;-80
2022/01/28 01:29:11;;;;;;;0.57;0.57;;;2.80;99.90;1.90;98389;;;;531126;266;24242;-80
2022/01/28 01:31:39;;;;;;;2.13;0.60;;;2.80;99.90;1.90;98390;;;;536019;264;24221;-81
2022/01/28 01:34:25;;;;;;;0.93;0.50;;;2.90;99.90;1.90;98387;;;;545734;260;24189;-81
2022/01/28 01:36:31;;;;;;;3.93;0.57;;;2.90;99.90;1.90;98395;;;;541230;262;24162;-79
2022/01/28 01:39:00;;;;;;;1.13;1.10;;;2.90;99.90;2.00;98401;;;;545790;260;24149;-79
2022/01/28 01:41:38;;;;;;;1.43;0.93;;;2.90;99.90;2.00;98403;;;;545712;260;24233;-80
2022/01/28 01:44:03;;;;;;;3.87;1.00;;;2.90;99.90;2.00;98413;;;;540514;262;24216;-79
2022/01/28 01:54:41;;;;;;;2.10;0.90;;;3.10;99.90;2.40;98426;;;;544102;260;24203;-80
2022/01/28 01:57:09;;;;;;;2.17;0.83;;;3.30;99.90;2.50;98430;;;;541082;262;24147;-80
2022/01/28 01:59:36;;;;;;;2.30;0.40;;;3.40;99.90;2.60;98450;;;;536433;262;24150;-80
2022/01/28 02:02:04;;;;;;;1.23;0.70;;;3.50;99.90;2.70;98442;;;;538389;258;24172;-80
2022/01/28 02:04:36;;;;;;;0.20;0.10;;;3.60;99.90;2.70;98446;;;;565593;253;24169;-81
2022/01/28 02:07:01;;;;;;;0.87;0.37;;;3.60;99.90;2.70;98453;;;;566148;253;24120;-81
2022/01/28 02:09:32;;;;;;;0.93;0.50;;;3.70;99.90;2.70;98451;;;;554309;256;24269;-81
2022/01/28 02:11:58;;;;;;;3.03;0.57;;;3.60;99.90;2.70;98452;;;;546057;259;24242;-80
2022/01/28 02:14:25;;;;;;;1.80;0.50;;;3.60;99.90;2.80;98457;;;;553266;259;24177;-80
2022/01/28 02:16:53;;;;;;;1.17;0.88;;;3.70;99.90;2.70;98470;;;;541209;259;35503;-80
2022/01/28 02:19:21;;;;;;;2.00;0.70;;;3.70;99.90;2.80;98471;;;;553842;258;24170;-80
2022/01/28 02:21:51;;;;;;;0.77;0.60;;;3.70;99.90;2.80;98471;;;;545884;260;24163;-80
2022/01/28 02:24:22;;;;;;;1.60;0.30;;;3.70;99.90;2.80;98473;;;;553616;258;24184;-80
2022/01/28 02:26:45;;;;;;;1.33;0.30;;;3.70;99.90;2.70;98478;;;;552704;257;24173;-81
2022/01/28 02:29:25;;;;;;;1.87;0.80;;;3.60;99.90;2.70;98484;;;;548853;258;35494;-80
2022/01/28 02:31:44;;;;;;;1.17;0.50;;;3.60;99.90;2.70;98490;;;;546099;260;24148;-80
2022/01/28 02:34:11;;;;;;;2.03;0.53;;;3.60;99.90;2.70;98494;;;;546973;262;24177;-80
2022/01/28 02:36:37;;;;;;;1.30;0.37;;;3.60;99.90;2.70;98488;;;;545733;260;24167;-80
2022/01/28 02:39:07;;;;;;;1.60;0.80;;;3.60;99.90;2.70;98498;;;;545211;260;24219;-79
2022/01/28 02:41:38;;;;;;;2.03;0.50;;;3.60;99.90;2.60;98510;;;;540485;261;24155;-82
2022/01/28 02:47:01;;;;;;;0.40;0.20;;;3.50;99.90;2.60;98517;;;;538013;260;24151;-80
2022/01/28 02:49:28;;;;;;;0.30;0.30;;;3.50;99.90;2.50;98523;;;;564502;253;24159;-81
2022/01/28 02:51:53;;;;;;;0.20;0.20;;;3.50;99.90;2.50;98539;;;;565421;252;24132;-81
2022/01/28 02:54:21;;;;;;;1.70;0.13;;;3.40;99.90;2.40;98538;;;;565422;253;24139;-80
2022/01/28 02:56:52;;;;;;;0.07;0.07;;;3.40;99.90;2.40;98543;;;;565624;252;24149;-80
2022/01/28 02:59:17;;;;;;;0.40;0.40;;;3.30;99.90;2.40;98548;;;;565804;252;24170;-80
2022/01/28 03:01:48;;;;;;;0.83;0.13;;;3.30;99.90;2.30;98548;;;;565525;252;24170;-81
2022/01/28 03:04:35;;;;;;;0.43;0.10;;;3.20;99.90;2.30;98564;;;;565159;253;25186;-80
2022/01/28 03:06:41;;;;;;;0.20;0.20;;;3.20;99.90;2.20;98580;;;;565776;251;24129;-80
2022/01/28 03:09:18;;;;;;;0.13;0.10;;;3.00;99.90;2.10;98579;;;;565440;252;24127;-81
2022/01/28 03:11:49;;;;;;;0.10;0.10;;;3.00;99.90;2.00;98594;;;;565360;252;24118;-80
2022/01/28 03:14:17;;;;;;;0.30;0.20;;;2.90;99.90;1.90;98592;;;;532397;260;24280;-80
2022/01/28 03:19:23;;;;;;;0.30;0.20;;;2.80;99.90;1.80;98601;;;;537956;259;24167;-80
2022/01/28 03:22:03;;;;;;;0.20;0.20;;;2.70;99.90;1.70;98617;;;;546363;259;24144;-80
2022/01/28 03:24:16;;;;;;;0.00;0.00;;;2.70;99.90;1.70;98627;;;;545127;259;24221;-80
2022/01/28 03:26:45;;;;;;;0.00;0.00;;;2.60;99.90;1.60;98631;;;;545861;259;24187;-80
2022/01/28 03:29:12;;;;;;;0.10;0.10;;;2.60;99.90;1.60;98647;;;;553907;258;24162;-80
2022/01/28 03:31:40;;;;;;;0.20;0.20;;;2.50;99.90;1.50;98641;;;;545868;259;24133;-80
2022/01/28 03:34:09;;;;;;;0.10;0.10;;;2.40;99.90;1.50;98647;;;;553833;257;24196;-80
2022/01/28 03:36:37;;;;;;;0.27;0.20;;;2.40;99.90;1.40;98651;;;;545695;260;24207;-80
2022/01/28 03:39:07;;;;;;;0.97;0.17;;;2.40;99.90;1.40;98666;;;;547558;261;24151;-80
2022/01/28 03:41:37;;;;;;;0.10;0.10;;;2.30;99.90;1.40;98672;;;;535693;264;24221;-80
2022/01/28 03:44:01;;;;;;;0.37;0.37;;;2.40;99.90;1.40;98684;;;;541216;260;24148;-80
2022/01/28 03:46:33;;;;;;;0.20;0.20;;;2.30;99.90;1.40;98701;;;;553707;256;24144;-80
2022/01/28 03:48:57;;;;;;;0.10;0.10;;;2.30;99.90;1.30;98709;;;;539109;264;25221;-79
2022/01/28 03:51:25;;;;;;;2.90;0.20;;;2.30;99.90;1.30;98711;;;;539332;263;24184;-79
2022/01/28 03:53:53;;;;;;;0.30;0.30;;;2.20;99.90;1.20;98714;;;;536209;264;24272;-80
2022/01/28 03:56:21;;;;;;;0.20;0.20;;;2.20;99.90;1.20;98724;;;;545822;260;24142;-80
2022/01/28 03:58:48;;;;;;;0.10;0.10;;;2.20;99.90;1.10;98740;;;;553799;256;24182;-79
2022/01/28 04:01:21;;;;;;;0.10;0.10;;;2.10;99.90;1.00;98742;;;;545703;260;24161;-79
2022/01/28 04:11:36;;;;;;;0.20;0.20;;;1.70;99.90;0.70;98774;;;;543826;264;24178;-79
2022/01/28 04:14:39;;;;;;;0.30;0.27;;;1.60;99.90;0.60;98773;;;;545880;260;24161;-79
2022/01/28 04:19:15;;;;;;;0.17;0.17;;;1.50;99.90;0.30;98785;;;;548767;260;24190;-78
2022/01/28 04:21:43;;;;;;;0.20;0.20;;;1.40;99.90;0.30;98784;;;;553721;258;24147;-77
2022/01/28 04:24:14;;;;;;;0.10;0.10;;;1.30;99.90;0.20;98788;;;;545717;260;24161;-77
2022/01/28 04:26:39;;;;;;;0.20;0.20;;;1.30;99.90;0.20;98798;;;;554165;257;24184;-79
2022/01/28 04:29:08;;;;;;;0.20;0.20;;;1.20;99.90;0.10;98807;;;;549888;259;24149;-78
2022/01/28 04:31:39;;;;;;;0.00;0.00;;;1.20;99.90;0.10;98818;;;;554611;257;24125;-79
2022/01/28 04:34:04;;;;;;;0.10;0.10;;;1.10;99.90;0.00;98826;;;;544582;259;24147;-78
2022/01/28 04:36:37;;;;;;;0.10;0.10;;;1.10;99.90;0.00;98823;;;;554315;257;24133;-78
2022/01/28 04:39:10;;;;;;;0.10;0.10;;;1.10;99.90;0.00;98843;;;;546303;259;24129;-78
2022/01/28 04:41:39;;;;;;;0.17;0.17;;;1.10;99.90;0.10;98848;;;;554259;258;24154;-78
2022/01/28 04:44:04;;;;;;;0.20;0.20;;;1.10;99.90;0.10;98851;;;;544097;259;24137;-78
2022/01/28 04:49:06;;;;;;;0.70;0.20;;;1.10;99.90;0.20;98864;;;;547270;260;24156;-79
2022/01/28 04:56:44;;;;;;;1.13;0.47;;;1.20;99.90;0.20;98895;;;;526295;264;24175;-77
2022/01/28 04:59:17;;;;;;;0.60;0.30;;;1.20;99.90;0.20;98904;;;;546070;260;24203;-78
2022/01/28 05:07:07;;;;;;;0.20;0.20;;;1.20;99.90;0.20;98937;;;;540489;262;24139;-78
2022/01/28 05:09:31;;;;;;;0.67;0.67;;;1.30;99.90;0.20;98935;;;;541716;262;24150;-78
2022/01/28 05:27:26;;;;;;;0.57;0.10;;;1.30;99.90;0.30;99001;;;;540405;262;24146;-77
2022/01/28 05:29:51;;;;;;;0.57;0.30;;;1.30;99.90;0.30;98998;;;;544329;264;24187;-77
2022/01/28 05:32:22;;;;;;;0.50;0.50;;;1.30;99.90;0.30;99025;;;;530973;265;24198;-76
2022/01/28 05:34:47;;;;;;;0.20;0.20;;;1.30;99.90;0.40;99031;;;;543714;264;24178;-77
2022/01/28 05:37:15;;;;;;;0.50;0.50;;;1.40;99.90;0.40;99041;;;;546087;260;24138;-76
2022/01/28 05:39:43;;;;;;;1.67;0.40;;;1.40;99.90;0.40;99044;;;;555367;257;24170;-76
2022/01/28 05:42:12;;;;;;;0.53;0.50;;;1.40;99.90;0.40;99058;;;;547116;259;24170;-77
2022/01/28 05:44:40;;;;;;;0.60;0.30;;;1.40;99.90;0.40;99068;;;;554693;257;24175;-77
2022/01/28 05:47:13;;;;;;;0.77;0.40;;;1.40;99.90;0.40;99070;;;;546471;259;25194;-77
2022/01/28 05:49:36;;;;;;;2.27;0.53;;;1.40;99.90;0.40;99081;;;;554244;258;24200;-77
2022/01/28 05:52:03;;;;;;;0.37;0.33;;;1.40;99.90;0.40;99076;;;;546260;259;24118;-78
2022/01/28 05:54:32;;;;;;;1.07;0.87;;;1.50;99.90;0.40;99078;;;;545523;259;25206;-79
2022/01/28 05:57:01;;;;;;;0.90;0.90;;;1.50;99.90;0.40;99113;;;;553603;258;24165;-77
2022/01/28 05:59:30;;;;;;;0.80;0.80;;;1.50;99.90;0.40;99112;;;;553618;257;24184;-77
2022/01/28 06:01:58;;;;;;;1.43;0.63;;;1.50;99.90;0.40;99121;;;;545806;260;24145;-78
2022/01/28 06:04:25;;;;;;;0.10;0.10;;;1.50;99.90;0.40;99130;;;;553657;258;24149;-79
2022/01/28 06:06:53;;;;;;;0.30;0.30;;;1.50;99.90;0.40;99139;;;;545646;260;24158;-78
2022/01/28 06:09:21;;;;;;;0.30;0.30;;;1.50;99.90;0.40;99156;;;;553728;258;24163;-78
2022/01/28 06:11:49;;;;;;;4.70;0.87;;;1.50;99.90;0.40;99162;;;;545625;260;25208;-77
2022/01/28 06:14:17;;;;;;;1.47;0.50;;;1.40;99.90;0.40;99166;;;;553695;258;24162;-77
2022/01/28 06:16:45;;;;;;;1.12;1.08;;;1.40;99.90;0.40;99173;;;;540689;260;35466;-78
2022/01/28 06:19:12;;;;;;;2.73;0.80;;;1.40;99.90;0.40;99177;;;;553288;258;24169;-78
2022/01/28 06:21:41;;;;;;;2.07;0.93;;;1.40;99.90;0.40;99197;;;;545488;260;24258;-77
2022/01/28 06:24:09;;;;;;;0.30;0.30;;;1.40;99.90;0.40;99200;;;;553316;258;24154;-78
2022/01/28 06:26:37;;;;;;;1.60;0.60;;;1.40;99.90;0.40;99198;;;;545540;260;24154;-78
2022/01/28 06:29:05;;;;;;;0.90;0.90;;;1.40;99.90;0.40;99214;;;;553378;258;24164;-79
2022/01/28 06:31:36;;;;;;;2.20;0.80;;;1.50;99.90;0.40;99213;;;;545788;260;24130;-79
2022/01/28 06:34:01;;;;;;;0.20;0.20;;;1.50;99.90;0.50;99216;;;;535930;262;24190;-78
2022/01/28 06:36:28;;;;;;;0.87;0.83;;;1.50;99.90;0.50;99234;;;;543449;263;24188;-78
2022/01/28 06:38:56;;;;;;;2.37;0.60;;;1.50;99.90;0.50;99251;;;;545519;260;24199;-78
2022/01/28 06:41:24;;;;;;;2.33;0.83;;;1.50;99.90;0.50;99233;;;;545332;260;24172;-78
2022/01/28 06:43:53;;;;;;;5.13;0.63;;;1.60;99.90;0.60;99256;;;;545607;260;24137;-78
2022/01/28 06:46:21;;;;;;;2.93;0.93;;;1.50;99.90;0.60;99255;;;;553432;258;24176;-78
2022/01/28 06:48:49;;;;;;;0.90;0.90;;;1.60;99.90;0.60;99257;;;;545414;260;24202;-78
2022/01/28 06:51:17;;;;;;;1.37;0.47;;;1.60;99.90;0.60;99267;;;;554848;257;24140;-79
2022/01/28 06:53:45;;;;;;;1.03;0.63;;;1.60;99.90;0.60;99270;;;;546327;259;24177;-79
2022/01/28 06:56:12;;;;;;;3.03;1.27;;;1.60;99.90;0.60;99282;;;;554525;257;24177;-79
2022/01/28 06:58:40;;;;;;;3.27;0.50;;;1.60;99.90;0.60;99299;;;;554057;257;24164;-78
2022/01/28 07:01:12;;;;;;;0.40;0.40;;;1.60;99.90;0.60;99314;;;;554256;258;24142;-77
2022/01/28 07:03:36;;;;;;;0.80;0.50;;;1.60;99.90;0.70;99299;;;;545707;259;24145;-77
2022/01/28 07:06:04;;;;;;;0.60;0.60;;;1.60;99.90;0.70;99312;;;;553879;258;24182;-78
2022/01/28 07:08:32;;;;;;;1.63;1.53;;;1.60;99.90;0.70;99314;;;;545840;260;24177;-77
2022/01/28 07:11:01;;;;;;;2.00;1.07;;;1.70;99.90;0.70;99319;;;;557181;246;24145;-81
2022/01/28 07:13:28;;;;;;;4.13;1.17;;;1.70;99.90;0.60;99329;;;;572576;246;24092;-81
2022/01/28 07:15:57;;;;;;;2.03;0.40;;;1.70;99.90;0.70;99321;;;;571576;248;24234;-79
2022/01/28 07:18:25;;;;;;;0.50;0.40;;;1.70;99.90;0.70;99354;;;;571322;241;24080;-81
2022/01/28 07:20:53;;;;;;;0.40;0.20;;;1.70;99.90;0.70;99347;;;;581868;246;24087;-79
2022/01/28 07:23:21;;;;;;;2.00;0.67;;;1.70;99.90;0.70;99358;;;;574111;250;24076;-80
2022/01/28 07:25:48;;;;;;;3.27;0.47;;;1.70;99.90;0.70;99373;;;;575913;242;24070;-80
2022/01/28 07:28:16;;;;;;;0.83;0.83;;;1.70;99.90;0.70;99371;;;;580224;239;24124;-80
2022/01/28 07:30:44;;;;;;;2.13;0.40;;;1.70;99.90;0.70;99398;;;;591601;242;24054;-82
2022/01/28 07:33:12;;;;;;;0.80;0.80;;;1.70;99.90;0.70;99390;;;;573494;247;24063;-81
2022/01/28 07:35:41;;;;;;;3.03;1.03;;;1.70;99.90;0.70;99402;;;;592120;242;24078;-81
2022/01/28 07:38:10;;;;;;;1.97;1.07;;;1.70;99.90;0.60;99421;;;;591978;242;24121;-80
2022/01/28 07:40:37;;;;;;;4.33;0.90;;;1.70;99.90;0.70;99421;;;;582437;246;24161;-79
2022/01/28 07:43:05;;;;;;;0.47;0.47;;;1.70;99.90;0.70;99432;;;;591743;242;24043;-80
2022/01/28 07:45:33;;;;;;;2.43;0.30;;;1.70;99.90;0.80;99441;;;;591370;243;24075;-82
2022/01/28 07:48:01;;;;;;;0.67;0.50;;;1.70;99.90;0.80;99433;;;;582419;246;24154;-80
2022/01/28 07:50:29;;;;;;;0.93;0.60;;;1.80;99.90;0.90;99452;;;;582402;246;24077;-82
2022/01/28 07:52:58;;;;;;;0.67;0.67;;;2.00;99.90;1.00;99467;;;;578675;247;24123;-79
2022/01/28 07:55:31;;;;;;;2.43;1.10;;;2.00;99.90;1.00;99487;;;;582997;243;24125;-82
2022/01/28 07:57:55;;;;;;;0.43;0.43;;;2.00;99.90;1.00;99489;;;;594661;241;24076;-83
2022/01/28 08:00:26;;;;;;;1.60;0.93;;;2.10;99.90;1.00;99503;;;;581371;241;24081;-79
2022/01/28 08:02:51;;;;;;;1.60;0.87;;;2.10;99.90;1.10;99511;;;;585200;244;24113;-81
2022/01/28 08:05:19;;;;;;;1.10;0.60;;;2.30;99.90;1.30;99509;;;;576167;246;24132;-80
2022/01/28 08:07:48;;;;;;;0.93;0.93;;;2.20;99.90;1.40;99524;;;;575516;245;24112;-83
2022/01/28 08:10:16;;;;;;;0.60;0.60;;;2.50;99.90;1.50;99519;;;;575701;245;24097;-81
2022/01/28 08:12:54;;;;;;;3.27;1.30;;;2.50;99.90;1.50;99529;;;;575580;245;24088;-82
2022/01/28 08:15:18;;;;;;;3.00;0.73;;;2.50;99.90;1.40;99530;;;;581815;247;24119;-80
2022/01/28 08:17:46;;;;;;;2.63;1.00;;;2.50;99.90;1.50;99541;;;;573265;246;24106;-80
2022/01/28 08:20:17;;;;;;;1.53;0.90;;;2.50;99.90;1.50;99554;;;;572233;247;24084;-78
2022/01/28 08:22:59;;;;;;;1.87;0.87;;;2.60;99.90;1.50;99561;;;;571810;247;24116;-82
2022/01/28 08:25:23;;;;;;;3.80;1.90;;;2.50;99.90;1.40;99568;;;;546541;256;35539;-79
2022/01/28 08:27:53;;;;;;;1.20;1.10;;;2.50;99.90;1.40;99574;;;;572059;247;24111;-82
2022/01/28 08:30:21;;;;;;;0.93;0.40;;;2.50;99.90;1.30;99571;;;;572616;247;24188;-83
2022/01/28 08:32:49;;;;;;;1.37;1.13;;;2.40;99.90;1.30;99581;;;;551209;257;24163;-81
2022/01/28 08:35:17;;;;;;;1.30;1.20;;;2.40;99.90;1.40;99600;;;;581405;247;24106;-83
2022/01/28 08:37:42;;;;;;;2.53;1.23;;;2.40;99.90;1.40;99580;;;;572188;246;24126;-79
2022/01/28 08:40:10;;;;;;;5.60;1.30;;;2.50;99.90;1.60;99604;;;;571733;247;24106;-80
2022/01/28 08:42:38;;;;;;;1.93;0.97;;;2.60;99.90;1.60;99613;;;;571770;247;24153;-79
2022/01/28 08:45:06;;;;;;;1.30;0.57;;;2.70;99.90;1.60;99611;;;;571537;247;24087;-79
2022/01/28 08:47:34;;;;;;;2.93;1.00;;;2.70;99.90;1.60;99608;;;;572440;246;24086;-79
2022/01/28 08:50:05;;;;;;;1.10;1.10;;;2.70;99.90;1.70;99613;;;;572627;246;24100;-79
2022/01/28 08:52:30;;;;;;;0.80;0.80;;;2.70;99.90;1.80;99635;;;;571887;245;24093;-78
2022/01/28 08:54:58;;;;;;;1.03;1.00;;;2.80;99.90;1.90;99627;;;;572652;246;24106;-77
2022/01/28 08:57:25;;;;;;;0.50;0.50;;;2.90;99.90;1.80;99631;;;;572302;246;24137;-79
2022/01/28 08:59:53;;;;;;;1.07;0.83;;;2.90;99.90;2.10;99647;;;;571814;246;24136;-78
2022/01/28 09:02:21;;;;;;;1.40;0.63;;;3.10;99.90;2.20;99659;;;;572190;246;24124;-78
2022/01/28 09:04:50;;;;;;;0.43;0.37;;;3.20;99.90;2.00;99656;;;;581515;247;24165;-79
2022/01/28 09:07:19;;;;;;;0.60;0.60;;;3.20;99.90;2.00;99672;;;;572822;246;24104;-81
2022/01/28 09:09:52;;;;;;;3.70;0.60;;;3.10;99.90;1.90;99690;;;;573133;246;24090;-79
2022/01/28 09:12:34;;;;;;;0.40;0.40;;;3.00;99.90;2.00;99706;;;;572337;245;24111;-81
2022/01/28 09:14:48;;;;;;;2.57;1.03;;;3.10;99.90;1.90;99707;;;;572560;246;24145;-79
2022/01/28 09:17:19;;;;;;;0.40;0.40;;;3.00;99.90;2.10;99699;;;;559941;253;24188;-81
2022/01/28 09:19:45;;;;;;;2.93;0.93;;;3.40;99.90;2.40;99698;;;;569314;248;24158;-79
2022/01/28 09:22:13;;;;;;;1.37;0.70;;;3.30;99.90;2.40;99709;;;;560147;251;25249;-79
2022/01/28 09:24:41;;;;;;;1.53;0.80;;;3.40;99.90;2.40;99710;;;;567759;251;24111;-81
2022/01/28 09:27:08;;;;;;;5.33;3.03;;;3.50;99.90;2.80;99726;;;;561617;252;24181;-79
2022/01/28 09:29:36;;;;;;;2.07;1.30;;;3.70;99.90;3.20;99718;;;;567175;252;24164;-78
2022/01/28 09:32:08;;;;;;;2.43;1.03;;;4.40;99.90;3.30;99731;;;;572260;250;24087;-78
2022/01/28 09:34:33;;;;;;;1.10;1.10;;;4.40;99.90;3.60;99739;;;;562792;252;24139;-83
2022/01/28 09:37:01;;;;;;;3.10;0.40;;;4.70;99.90;3.70;99740;;;;571966;251;24346;-81
2022/01/28 09:39:31;;;;;;;1.70;0.70;;;4.90;99.90;3.80;99742;;;;571938;250;24143;-83
2022/01/28 09:42:00;;;;;;;3.03;0.70;;;5.00;99.90;3.70;99752;;;;572185;251;24147;-78
2022/01/28 09:44:24;;;;;;;1.77;0.73;;;4.90;99.90;3.60;99753;;;;566723;251;24113;-80
2022/01/28 09:46:52;;;;;;;1.10;0.77;;;4.80;99.90;3.20;99768;;;;572025;250;24140;-79
2022/01/28 09:49:23;;;;;;;2.03;0.80;;;4.60;99.90;3.10;99766;;;;560983;251;24092;-79
2022/01/28 09:51:49;;;;;;;1.50;0.90;;;4.00;99.90;2.90;99766;;;;560395;251;24117;-79
2022/01/28 09:54:17;;;;;;;1.47;0.80;;;4.00;99.90;2.70;99775;;;;565351;251;24096;-80
2022/01/28 09:56:45;;;;;;;3.13;0.87;;;3.80;99.90;2.40;99786;;;;574060;250;24127;-78
2022/01/28 09:59:13;;;;;;;2.10;0.73;;;3.60;99.90;2.20;99783;;;;574735;250;24078;-80
2022/01/28 10:01:47;;;;;;;1.03;0.93;;;3.30;99.90;2.10;99782;;;;573193;246;24097;-81
2022/01/28 10:04:17;;;;;;;1.20;1.20;;;3.20;99.90;2.00;99789;;;;564262;251;24104;-81
2022/01/28 10:06:43;;;;;;;0.80;0.80;;;3.00;99.90;2.00;99794;;;;572837;250;24127;-79
2022/01/28 10:09:14;;;;;;;2.70;1.03;;;3.00;99.90;2.00;99808;;;;573042;250;24081;-80
2022/01/28 10:11:42;;;;;;;1.70;1.27;;;3.10;99.90;2.10;99801;;;;567658;251;24159;-80
2022/01/28 10:14:14;;;;;;;0.67;0.67;;;3.10;99.90;2.20;99809;;;;565373;251;24163;-79
2022/01/28 10:16:36;;;;;;;0.83;0.80;;;3.20;99.90;2.30;99826;;;;567238;251;24115;-78
2022/01/28 10:19:06;;;;;;;2.13;1.00;;;3.30;99.90;2.40;99810;;;;573154;250;24096;-78
2022/01/28 10:21:43;;;;;;;0.50;0.50;;;3.40;99.90;2.70;99838;;;;564449;251;24098;-79
2022/01/28 10:24:16;;;;;;;3.10;0.57;;;3.60;99.90;2.80;99844;;;;563270;251;24152;-77
2022/01/28 10:27:09;;;;;;;2.87;0.80;;;3.80;99.90;2.90;99845;;;;565001;251;24140;-78
2022/01/28 10:29:38;;;;;;;2.45;0.80;;;3.90;99.90;2.80;99840;;;;576899;246;35313;-78
2022/01/28 10:32:15;;;;;;;1.33;0.60;;;3.80;99.90;2.50;99854;;;;572439;247;24082;-79
2022/01/28 10:34:46;;;;;;;1.23;0.80;;;3.60;99.90;2.40;99857;;;;571924;247;24101;-79
2022/01/28 10:37:22;;;;;;;0.77;0.60;;;3.50;99.90;2.50;99871;;;;572080;247;24099;-78
2022/01/28 10:40:12;;;;;;;0.87;0.50;;;3.50;99.90;2.60;99874;;;;572077;247;24130;-77
2022/01/28 10:42:49;;;;;;;1.87;0.88;;;3.60;99.90;2.60;99879;;;;576775;246;35149;-81
2022/01/28 10:45:14;;;;;;;1.87;1.70;;;3.60;99.90;2.80;99878;;;;561190;251;24183;-82
2022/01/28 10:47:50;;;;;;;1.10;0.90;;;3.70;99.90;2.70;99889;;;;561854;252;24126;-79
2022/01/28 10:50:27;;;;;;;2.23;1.00;;;3.70;99.90;2.70;99892;;;;559606;256;24265;-79
2022/01/28 10:53:10;;;;;;;1.83;1.63;;;3.60;99.90;2.60;99897;;;;551832;256;24215;-78
2022/01/28 10:55:44;;;;;;;3.53;1.30;;;3.60;99.90;2.40;99893;;;;571143;251;24115;-78
2022/01/28 10:58:24;;;;;;;1.27;0.70;;;3.50;99.90;2.20;99898;;;;561821;252;24128;-79
2022/01/28 11:00:57;;;;;;;1.93;1.00;;;3.30;99.90;1.90;99924;;;;561843;255;24181;-81
2022/01/28 11:03:29;;;;;;;0.83;0.63;;;3.00;99.90;1.70;99917;;;;562261;252;24164;-80
2022/01/28 11:06:02;;;;;;;2.37;0.60;;;2.80;99.90;1.80;99910;;;;570945;247;24088;-81
2022/01/28 11:08:34;;;;;;;0.80;0.50;;;2.80;99.90;2.00;99926;;;;571903;247;24091;-80
2022/01/28 11:10:58;;;;;;;2.50;0.40;;;2.90;99.90;2.10;99905;;;;561259;252;24132;-82
2022/01/28 11:13:26;;;;;;;2.23;0.90;;;3.00;99.90;2.30;99930;;;;561411;252;24119;-79
2022/01/28 11:15:54;;;;;;;2.57;0.67;;;3.20;99.90;2.50;99934;;;;555925;257;24178;-79
2022/01/28 11:18:25;;;;;;;1.53;0.50;;;3.40;99.90;2.60;99941;;;;572836;246;24106;-79
2022/01/28 11:20:50;;;;;;;0.53;0.53;;;3.50;99.90;2.50;99950;;;;549017;257;24149;-81
2022/01/28 11:23:42;;;;;;;3.67;0.73;;;3.40;99.90;2.40;99945;;;;572334;247;25115;-79
2022/01/28 11:26:25;;;;;;;0.87;0.50;;;3.40;99.90;2.40;99940;;;;565110;245;24145;-80
2022/01/28 11:28:55;;;;;;;0.90;0.70;;;3.40;99.90;2.30;99953;;;;561901;251;24114;-78
2022/01/28 11:31:46;;;;;;;4.40;1.03;;;3.40;99.90;2.40;99950;;;;551692;256;24168;-79
2022/01/28 11:34:17;;;;;;;1.20;0.87;;;3.50;99.90;2.50;99989;;;;548195;257;24157;-83
2022/01/28 11:36:45;;;;;;;0.47;0.47;;;3.50;99.90;2.30;99999;;;;562006;251;24183;-81
2022/01/28 11:39:38;;;;;;;0.93;0.70;;;3.40;99.90;2.00;99990;;;;557048;257;24159;-81
2022/01/28 11:42:15;;;;;;;0.53;0.50;;;3.10;99.90;1.80;99998;;;;562528;252;25154;-78
2022/01/28 11:44:51;;;;;;;0.43;0.43;;;2.90;99.90;1.70;100012;;;;562621;252;24108;-82
2022/01/28 11:47:39;;;;;;;1.10;0.63;;;2.60;99.90;1.60;100024;;;;558858;256;24163;-82
2022/01/28 11:50:14;;;;;;;0.70;0.57;;;2.60;99.90;1.50;100029;;;;560595;251;24131;-81
2022/01/28 11:52:48;;;;;;;6.23;1.17;;;2.50;99.90;1.40;100027;;;;551202;257;24155;-82
2022/01/28 11:55:24;;;;;;;3.10;0.93;;;2.30;99.90;1.40;100038;;;;559181;251;24110;-82
2022/01/28 11:57:57;;;;;;;1.17;1.07;;;2.30;99.90;1.30;100037;;;;561855;251;24123;-79
2022/01/28 12:00:33;;;;;;;3.00;2.33;;;2.30;99.90;1.40;100046;;;;550026;256;25218;-80
2022/01/28 12:03:01;;;;;;;4.27;1.30;;;2.30;99.90;1.30;100044;;;;580345;246;24159;-80
2022/01/28 12:05:32;;;;;;;0.63;0.63;;;2.30;99.90;1.30;100046;;;;569318;246;24087;-82
2022/01/28 12:08:03;;;;;;;20.83;8.60;;;2.30;99.90;1.30;100058;;;;572931;247;24068;-79
2022/01/28 12:10:32;;;;;;;7.03;3.50;;;2.30;99.90;1.30;100066;;;;572538;247;24090;-78
2022/01/28 12:13:00;;;;;;;5.87;2.00;;;2.30;99.90;1.30;100074;;;;576899;247;24124;-78
2022/01/28 12:15:32;;;;;;;8.30;3.53;;;2.30;99.90;1.30;100074;;;;572676;247;24101;-79
2022/01/28 12:18:09;;;;;;;6.23;1.43;;;2.30;99.90;1.30;100090;;;;571198;247;24080;-81
2022/01/28 12:20:46;;;;;;;2.77;0.30;;;2.30;99.90;1.20;100093;;;;572649;247;25151;-79
2022/01/28 12:23:14;;;;;;;4.43;1.33;;;2.20;99.90;1.20;100089;;;;572937;247;24106;-84
2022/01/28 12:25:42;;;;;;;5.30;2.33;;;2.20;99.90;1.20;100099;;;;549537;257;24187;-83
2022/01/28 12:28:18;;;;;;;2.90;0.97;;;2.20;99.90;1.20;100097;;;;570256;250;24101;-81
2022/01/28 12:31:15;;;;;;;5.93;1.47;;;2.20;99.90;1.20;100106;;;;566517;253;24125;-85
2022/01/28 12:33:46;;;;;;;8.40;2.63;;;2.20;99.90;1.20;100111;;;;563980;252;24110;-81
2022/01/28 12:36:22;;;;;;;5.90;1.60;;;2.20;99.90;1.20;100118;;;;556784;257;24141;-82
2022/01/28 12:39:11;;;;;;;3.37;1.60;;;2.20;99.90;1.30;100119;;;;561852;252;24119;-78
2022/01/28 12:41:22;;;;;;;0.70;0.70;;;2.20;99.90;1.20;100119;;;;548978;258;24193;-83
2022/01/28 12:43:48;;;;;;;11.13;4.13;;;2.20;99.90;1.20;100134;;;;564123;252;24120;-83
2022/01/28 12:46:16;;;;;;;5.80;2.00;;;2.30;99.90;1.20;100125;;;;578181;246;24080;-80
2022/01/28 12:48:49;;;;;;;3.90;2.07;;;2.30;99.90;1.20;100144;;;;573026;247;24075;-79
2022/01/28 12:51:20;;;;;;;8.10;2.30;;;2.30;99.90;1.20;100153;;;;573198;247;25124;-78